Terminal Aerodrome Forecast
Issued by NWS

Home | Current Version | Previous Version | Text Only | Print | Product List | Glossary Off
Versions: 1 2 3 4 5 6 7 8 9 10 11 12 13 14 15 16 17 18 19 20 21 22 23 24 25 26 27 28 29 30 31 32 33

000
FTUS43 KLOT 152100 AAA
TAFMDW
TAF AMD
KMDW 152100Z 1521/1618 VRB03KT P6SM BKN120 OVC250
     FM160900 VRB03KT P6SM OVC020
     FM161200 11004KT 6SM BR OVC015
      TEMPO 1612/1616 4SM -FZRA OVC008
     FM161600 10005KT 4SM -FZRA SCT004 OVC008=

USA.gov is the U.S. government's official web portal to all federal, state and local government web resources and services.